sensor_id;sensor_type;location;lat;lon;timestamp;P1;durP1;ratioP1;P2;durP2;ratioP2
63690;SDS011;49837;57.280;27.070;2023-04-15T00:00:15;11.3;;;5.4;;
63690;SDS011;49837;57.280;27.070;2023-04-15T00:01:16;11.2;;;5.1;;
63690;SDS011;49837;57.280;27.070;2023-04-15T00:02:17;10.1;;;5.4;;
63690;SDS011;49837;57.280;27.070;2023-04-15T00:03:17;11.3;;;5.0;;
63690;SDS011;49837;57.280;27.070;2023-04-15T00:04:17;10.7;;;5.2;;
63690;SDS011;49837;57.280;27.070;2023-04-15T00:05:17;9.7;;;4.9;;
63690;SDS011;49837;57.280;27.070;2023-04-15T00:06:18;13.0;;;5.4;;
63690;SDS011;49837;57.280;27.070;2023-04-15T00:07:18;9.9;;;5.0;;
63690;SDS011;49837;57.280;27.070;2023-04-15T00:08:19;9.5;;;4.9;;
63690;SDS011;49837;57.280;27.070;2023-04-15T00:09:19;12.2;;;5.4;;
63690;SDS011;49837;57.280;27.070;2023-04-15T00:10:19;9.1;;;4.7;;
63690;SDS011;49837;57.280;27.070;2023-04-15T00:11:20;11.2;;;5.0;;
63690;SDS011;49837;57.280;27.070;2023-04-15T00:12:20;10.4;;;4.6;;
63690;SDS011;49837;57.280;27.070;2023-04-15T00:13:20;11.3;;;4.8;;
63690;SDS011;49837;57.280;27.070;2023-04-15T00:14:21;9.8;;;4.9;;
63690;SDS011;49837;57.280;27.070;2023-04-15T00:15:21;17.7;;;5.3;;
63690;SDS011;49837;57.280;27.070;2023-04-15T00:16:21;11.4;;;5.5;;
63690;SDS011;49837;57.280;27.070;2023-04-15T00:17:22;9.7;;;5.1;;
63690;SDS011;49837;57.280;27.070;2023-04-15T00:18:22;10.2;;;5.0;;
63690;SDS011;49837;57.280;27.070;2023-04-15T00:19:22;9.4;;;4.9;;
63690;SDS011;49837;57.280;27.070;2023-04-15T00:20:23;10.1;;;4.9;;
63690;SDS011;49837;57.280;27.070;2023-04-15T00:21:23;9.4;;;5.0;;
63690;SDS011;49837;57.280;27.070;2023-04-15T00:22:23;11.3;;;5.1;;
63690;SDS011;49837;57.280;27.070;2023-04-15T00:23:24;9.9;;;5.2;;
63690;SDS011;49837;57.280;27.070;2023-04-15T00:24:24;9.3;;;5.0;;
63690;SDS011;49837;57.280;27.070;2023-04-15T00:25:25;12.1;;;5.0;;
63690;SDS011;49837;57.280;27.070;2023-04-15T00:26:25;10.5;;;5.1;;
63690;SDS011;49837;57.280;27.070;2023-04-15T00:27:25;11.4;;;5.8;;
63690;SDS011;49837;57.280;27.070;2023-04-15T00:28:26;9.9;;;4.9;;
63690;SDS011;49837;57.280;27.070;2023-04-15T00:29:26;14.4;;;5.8;;
63690;SDS011;49837;57.280;27.070;2023-04-15T00:30:26;10.4;;;4.7;;
63690;SDS011;49837;57.280;27.070;2023-04-15T00:31:27;10.0;;;5.2;;
63690;SDS011;49837;57.280;27.070;2023-04-15T00:32:27;9.5;;;4.9;;
63690;SDS011;49837;57.280;27.070;2023-04-15T00:33:28;10.3;;;4.8;;
63690;SDS011;49837;57.280;27.070;2023-04-15T00:34:29;11.2;;;5.6;;
63690;SDS011;49837;57.280;27.070;2023-04-15T00:35:28;10.7;;;5.3;;
63690;SDS011;49837;57.280;27.070;2023-04-15T00:36:29;10.5;;;5.1;;
63690;SDS011;49837;57.280;27.070;2023-04-15T00:37:29;10.1;;;5.0;;
63690;SDS011;49837;57.280;27.070;2023-04-15T00:38:29;13.1;;;5.0;;
63690;SDS011;49837;57.280;27.070;2023-04-15T00:39:30;11.7;;;5.1;;
63690;SDS011;49837;57.280;27.070;2023-04-15T00:40:30;11.0;;;5.3;;
63690;SDS011;49837;57.280;27.070;2023-04-15T00:41:30;8.9;;;4.8;;
63690;SDS011;49837;57.280;27.070;2023-04-15T00:42:31;10.6;;;5.3;;
63690;SDS011;49837;57.280;27.070;2023-04-15T00:43:31;11.8;;;4.9;;
63690;SDS011;49837;57.280;27.070;2023-04-15T00:44:32;11.7;;;5.3;;
63690;SDS011;49837;57.280;27.070;2023-04-15T00:45:32;10.9;;;5.4;;
63690;SDS011;49837;57.280;27.070;2023-04-15T00:46:34;10.4;;;4.9;;
63690;SDS011;49837;57.280;27.070;2023-04-15T00:47:33;9.5;;;5.1;;
63690;SDS011;49837;57.280;27.070;2023-04-15T00:48:33;13.1;;;5.4;;
63690;SDS011;49837;57.280;27.070;2023-04-15T00:49:33;14.3;;;5.1;;
63690;SDS011;49837;57.280;27.070;2023-04-15T00:50:34;9.8;;;5.2;;
63690;SDS011;49837;57.280;27.070;2023-04-15T00:51:34;11.7;;;5.0;;
63690;SDS011;49837;57.280;27.070;2023-04-15T00:52:35;11.1;;;5.0;;
63690;SDS011;49837;57.280;27.070;2023-04-15T00:53:35;11.2;;;5.1;;
63690;SDS011;49837;57.280;27.070;2023-04-15T00:54:35;14.3;;;6.1;;
63690;SDS011;49837;57.280;27.070;2023-04-15T00:55:36;13.6;;;5.4;;
63690;SDS011;49837;57.280;27.070;2023-04-15T00:56:36;10.8;;;5.3;;
63690;SDS011;49837;57.280;27.070;2023-04-15T00:57:36;9.4;;;4.9;;
63690;SDS011;49837;57.280;27.070;2023-04-15T00:58:37;10.8;;;4.8;;
63690;SDS011;49837;57.280;27.070;2023-04-15T00:59:37;27.7;;;6.5;;
63690;SDS011;49837;57.280;27.070;2023-04-15T01:00:37;13.8;;;5.0;;
63690;SDS011;49837;57.280;27.070;2023-04-15T01:01:38;11.8;;;5.3;;
63690;SDS011;49837;57.280;27.070;2023-04-15T01:02:38;11.8;;;5.3;;
63690;SDS011;49837;57.280;27.070;2023-04-15T01:03:38;9.5;;;5.0;;
63690;SDS011;49837;57.280;27.070;2023-04-15T01:04:39;12.5;;;5.5;;
63690;SDS011;49837;57.280;27.070;2023-04-15T01:05:39;13.0;;;5.6;;
63690;SDS011;49837;57.280;27.070;2023-04-15T01:06:40;11.9;;;5.6;;
63690;SDS011;49837;57.280;27.070;2023-04-15T01:07:40;12.6;;;5.6;;
63690;SDS011;49837;57.280;27.070;2023-04-15T01:08:41;12.9;;;6.1;;
63690;SDS011;49837;57.280;27.070;2023-04-15T01:09:41;11.7;;;6.0;;
63690;SDS011;49837;57.280;27.070;2023-04-15T01:10:41;13.8;;;6.1;;
63690;SDS011;49837;57.280;27.070;2023-04-15T01:11:41;11.7;;;6.0;;
63690;SDS011;49837;57.280;27.070;2023-04-15T01:12:42;12.0;;;5.6;;
63690;SDS011;49837;57.280;27.070;2023-04-15T01:13:42;13.8;;;6.7;;
63690;SDS011;49837;57.280;27.070;2023-04-15T01:14:42;13.4;;;6.6;;
63690;SDS011;49837;57.280;27.070;2023-04-15T01:15:43;13.4;;;6.4;;
63690;SDS011;49837;57.280;27.070;2023-04-15T01:16:43;13.0;;;6.8;;
63690;SDS011;49837;57.280;27.070;2023-04-15T01:17:44;15.0;;;6.6;;
63690;SDS011;49837;57.280;27.070;2023-04-15T01:18:44;14.3;;;6.7;;
63690;SDS011;49837;57.280;27.070;2023-04-15T01:19:44;13.7;;;6.4;;
63690;SDS011;49837;57.280;27.070;2023-04-15T01:20:45;14.1;;;6.2;;
63690;SDS011;49837;57.280;27.070;2023-04-15T01:21:45;15.4;;;7.2;;
63690;SDS011;49837;57.280;27.070;2023-04-15T01:22:45;12.7;;;6.5;;
63690;SDS011;49837;57.280;27.070;2023-04-15T01:23:46;13.7;;;6.4;;
63690;SDS011;49837;57.280;27.070;2023-04-15T01:24:50;13.7;;;6.9;;
63690;SDS011;49837;57.280;27.070;2023-04-15T01:25:50;19.0;;;6.6;;
63690;SDS011;49837;57.280;27.070;2023-04-15T01:26:50;10.9;;;5.7;;
63690;SDS011;49837;57.280;27.070;2023-04-15T01:27:50;11.4;;;6.1;;
63690;SDS011;49837;57.280;27.070;2023-04-15T01:28:51;15.9;;;6.4;;
63690;SDS011;49837;57.280;27.070;2023-04-15T01:29:51;14.5;;;5.8;;
63690;SDS011;49837;57.280;27.070;2023-04-15T01:31:07;12.9;;;5.4;;
63690;SDS011;49837;57.280;27.070;2023-04-15T01:31:55;11.0;;;5.7;;
63690;SDS011;49837;57.280;27.070;2023-04-15T01:32:55;12.7;;;5.6;;
63690;SDS011;49837;57.280;27.070;2023-04-15T01:33:55;14.6;;;5.6;;
63690;SDS011;49837;57.280;27.070;2023-04-15T01:34:56;9.7;;;5.2;;
63690;SDS011;49837;57.280;27.070;2023-04-15T01:35:56;13.8;;;5.4;;
63690;SDS011;49837;57.280;27.070;2023-04-15T01:36:56;12.0;;;5.1;;
63690;SDS011;49837;57.280;27.070;2023-04-15T01:37:59;10.1;;;4.8;;
63690;SDS011;49837;57.280;27.070;2023-04-15T01:39:01;12.3;;;5.5;;
63690;SDS011;49837;57.280;27.070;2023-04-15T01:40:02;11.8;;;5.3;;
63690;SDS011;49837;57.280;27.070;2023-04-15T01:41:02;10.1;;;5.0;;
63690;SDS011;49837;57.280;27.070;2023-04-15T01:42:02;9.8;;;4.6;;
63690;SDS011;49837;57.280;27.070;2023-04-15T01:43:03;10.2;;;4.9;;
63690;SDS011;49837;57.280;27.070;2023-04-15T01:44:03;12.5;;;5.2;;
63690;SDS011;49837;57.280;27.070;2023-04-15T01:45:04;10.9;;;4.9;;
63690;SDS011;49837;57.280;27.070;2023-04-15T01:46:04;14.1;;;5.2;;
63690;SDS011;49837;57.280;27.070;2023-04-15T01:47:04;11.3;;;5.0;;
63690;SDS011;49837;57.280;27.070;2023-04-15T01:48:05;10.9;;;5.1;;
63690;SDS011;49837;57.280;27.070;2023-04-15T01:49:05;10.9;;;5.0;;
63690;SDS011;49837;57.280;27.070;2023-04-15T01:50:06;11.3;;;5.2;;
63690;SDS011;49837;57.280;27.070;2023-04-15T01:51:06;10.2;;;4.7;;
63690;SDS011;49837;57.280;27.070;2023-04-15T01:52:06;10.0;;;4.5;;
63690;SDS011;49837;57.280;27.070;2023-04-15T01:53:06;11.6;;;4.8;;
63690;SDS011;49837;57.280;27.070;2023-04-15T01:54:07;12.7;;;4.7;;
63690;SDS011;49837;57.280;27.070;2023-04-15T01:55:07;11.6;;;5.2;;
63690;SDS011;49837;57.280;27.070;2023-04-15T01:56:07;13.0;;;5.0;;
63690;SDS011;49837;57.280;27.070;2023-04-15T01:57:08;11.7;;;4.4;;
63690;SDS011;49837;57.280;27.070;2023-04-15T01:58:08;10.9;;;4.5;;
63690;SDS011;49837;57.280;27.070;2023-04-15T01:59:09;8.7;;;4.3;;
63690;SDS011;49837;57.280;27.070;2023-04-15T02:00:09;8.5;;;3.9;;
63690;SDS011;49837;57.280;27.070;2023-04-15T02:01:09;10.2;;;4.5;;
63690;SDS011;49837;57.280;27.070;2023-04-15T02:02:10;8.2;;;4.4;;
63690;SDS011;49837;57.280;27.070;2023-04-15T02:03:10;10.3;;;4.2;;
63690;SDS011;49837;57.280;27.070;2023-04-15T02:04:10;10.6;;;4.7;;
63690;SDS011;49837;57.280;27.070;2023-04-15T02:05:11;18.4;;;4.3;;
63690;SDS011;49837;57.280;27.070;2023-04-15T02:06:11;63.5;;;6.5;;
63690;SDS011;49837;57.280;27.070;2023-04-15T02:07:11;11.3;;;4.2;;
63690;SDS011;49837;57.280;27.070;2023-04-15T02:08:12;10.1;;;3.9;;
63690;SDS011;49837;57.280;27.070;2023-04-15T02:09:12;9.5;;;4.2;;
63690;SDS011;49837;57.280;27.070;2023-04-15T02:10:13;8.8;;;4.2;;
63690;SDS011;49837;57.280;27.070;2023-04-15T02:11:13;7.8;;;3.9;;
63690;SDS011;49837;57.280;27.070;2023-04-15T02:12:13;11.8;;;4.1;;
63690;SDS011;49837;57.280;27.070;2023-04-15T02:13:14;8.4;;;3.8;;
63690;SDS011;49837;57.280;27.070;2023-04-15T02:14:14;9.9;;;4.4;;
63690;SDS011;49837;57.280;27.070;2023-04-15T02:15:14;9.5;;;4.3;;
63690;SDS011;49837;57.280;27.070;2023-04-15T02:16:18;8.0;;;3.8;;
63690;SDS011;49837;57.280;27.070;2023-04-15T02:17:15;8.4;;;4.3;;
63690;SDS011;49837;57.280;27.070;2023-04-15T02:18:16;9.2;;;4.1;;
63690;SDS011;49837;57.280;27.070;2023-04-15T02:19:16;7.9;;;3.6;;
63690;SDS011;49837;57.280;27.070;2023-04-15T02:20:17;7.6;;;4.1;;
63690;SDS011;49837;57.280;27.070;2023-04-15T02:21:17;12.1;;;4.2;;
63690;SDS011;49837;57.280;27.070;2023-04-15T02:22:17;8.6;;;3.6;;
63690;SDS011;49837;57.280;27.070;2023-04-15T02:23:17;10.8;;;4.0;;
63690;SDS011;49837;57.280;27.070;2023-04-15T02:24:18;10.7;;;4.0;;
63690;SDS011;49837;57.280;27.070;2023-04-15T02:25:18;10.1;;;4.3;;
63690;SDS011;49837;57.280;27.070;2023-04-15T02:26:19;9.0;;;4.2;;
63690;SDS011;49837;57.280;27.070;2023-04-15T02:27:19;10.6;;;4.5;;
63690;SDS011;49837;57.280;27.070;2023-04-15T02:28:19;7.9;;;4.1;;
63690;SDS011;49837;57.280;27.070;2023-04-15T02:29:19;9.9;;;4.1;;
63690;SDS011;49837;57.280;27.070;2023-04-15T02:30:20;11.4;;;4.4;;
63690;SDS011;49837;57.280;27.070;2023-04-15T02:31:20;8.5;;;4.1;;
63690;SDS011;49837;57.280;27.070;2023-04-15T02:32:21;8.9;;;4.2;;
63690;SDS011;49837;57.280;27.070;2023-04-15T02:33:21;9.6;;;4.3;;
63690;SDS011;49837;57.280;27.070;2023-04-15T02:34:21;10.0;;;4.0;;
63690;SDS011;49837;57.280;27.070;2023-04-15T02:35:22;9.6;;;4.7;;
63690;SDS011;49837;57.280;27.070;2023-04-15T02:36:22;10.1;;;4.6;;
63690;SDS011;49837;57.280;27.070;2023-04-15T02:37:22;9.9;;;4.6;;
63690;SDS011;49837;57.280;27.070;2023-04-15T02:38:23;11.4;;;4.5;;
63690;SDS011;49837;57.280;27.070;2023-04-15T02:39:23;12.9;;;4.6;;
63690;SDS011;49837;57.280;27.070;2023-04-15T02:40:24;10.8;;;4.7;;
63690;SDS011;49837;57.280;27.070;2023-04-15T02:41:24;13.2;;;5.0;;
63690;SDS011;49837;57.280;27.070;2023-04-15T02:42:24;13.5;;;5.4;;
63690;SDS011;49837;57.280;27.070;2023-04-15T02:43:25;9.1;;;4.5;;
63690;SDS011;49837;57.280;27.070;2023-04-15T02:44:25;10.5;;;4.6;;
63690;SDS011;49837;57.280;27.070;2023-04-15T02:45:25;12.9;;;5.2;;
63690;SDS011;49837;57.280;27.070;2023-04-15T02:46:26;9.0;;;4.3;;
63690;SDS011;49837;57.280;27.070;2023-04-15T02:47:26;10.0;;;4.8;;
63690;SDS011;49837;57.280;27.070;2023-04-15T02:48:26;11.9;;;5.1;;
63690;SDS011;49837;57.280;27.070;2023-04-15T02:49:27;11.0;;;4.9;;
63690;SDS011;49837;57.280;27.070;2023-04-15T02:50:27;13.1;;;4.8;;
63690;SDS011;49837;57.280;27.070;2023-04-15T02:51:29;10.5;;;5.0;;
63690;SDS011;49837;57.280;27.070;2023-04-15T02:52:28;10.7;;;5.1;;
63690;SDS011;49837;57.280;27.070;2023-04-15T02:53:28;11.7;;;5.4;;
63690;SDS011;49837;57.280;27.070;2023-04-15T02:54:29;13.3;;;5.3;;
63690;SDS011;49837;57.280;27.070;2023-04-15T02:55:29;12.1;;;5.0;;
63690;SDS011;49837;57.280;27.070;2023-04-15T02:56:29;9.9;;;5.1;;
63690;SDS011;49837;57.280;27.070;2023-04-15T02:57:30;10.2;;;4.9;;
63690;SDS011;49837;57.280;27.070;2023-04-15T02:58:30;11.2;;;5.4;;
63690;SDS011;49837;57.280;27.070;2023-04-15T02:59:30;12.9;;;5.4;;
63690;SDS011;49837;57.280;27.070;2023-04-15T03:00:31;9.0;;;5.0;;
63690;SDS011;49837;57.280;27.070;2023-04-15T03:01:31;12.6;;;5.5;;
63690;SDS011;49837;57.280;27.070;2023-04-15T03:02:35;13.2;;;5.3;;
63690;SDS011;49837;57.280;27.070;2023-04-15T03:03:33;14.1;;;5.5;;
63690;SDS011;49837;57.280;27.070;2023-04-15T03:04:33;13.4;;;5.9;;
63690;SDS011;49837;57.280;27.070;2023-04-15T03:05:33;14.5;;;5.2;;
63690;SDS011;49837;57.280;27.070;2023-04-15T03:06:34;12.3;;;5.3;;
63690;SDS011;49837;57.280;27.070;2023-04-15T03:07:34;12.6;;;5.6;;
63690;SDS011;49837;57.280;27.070;2023-04-15T03:08:35;11.7;;;5.2;;
63690;SDS011;49837;57.280;27.070;2023-04-15T03:09:35;13.8;;;6.0;;
63690;SDS011;49837;57.280;27.070;2023-04-15T03:10:35;14.8;;;6.4;;
63690;SDS011;49837;57.280;27.070;2023-04-15T03:11:36;18.2;;;6.0;;
63690;SDS011;49837;57.280;27.070;2023-04-15T03:12:36;11.2;;;5.6;;
63690;SDS011;49837;57.280;27.070;2023-04-15T03:13:36;14.8;;;5.6;;
63690;SDS011;49837;57.280;27.070;2023-04-15T03:14:37;15.2;;;5.7;;
63690;SDS011;49837;57.280;27.070;2023-04-15T03:15:37;14.0;;;6.0;;
63690;SDS011;49837;57.280;27.070;2023-04-15T03:16:37;17.7;;;5.9;;
63690;SDS011;49837;57.280;27.070;2023-04-15T03:17:38;14.7;;;5.7;;
63690;SDS011;49837;57.280;27.070;2023-04-15T03:18:38;11.8;;;5.9;;
63690;SDS011;49837;57.280;27.070;2023-04-15T03:19:39;11.1;;;5.8;;
63690;SDS011;49837;57.280;27.070;2023-04-15T03:20:39;12.5;;;5.9;;
63690;SDS011;49837;57.280;27.070;2023-04-15T03:21:39;15.9;;;6.4;;
63690;SDS011;49837;57.280;27.070;2023-04-15T03:22:40;13.9;;;6.3;;
63690;SDS011;49837;57.280;27.070;2023-04-15T03:23:40;14.0;;;6.2;;
63690;SDS011;49837;57.280;27.070;2023-04-15T03:24:40;12.0;;;5.7;;
63690;SDS011;49837;57.280;27.070;2023-04-15T03:25:41;12.3;;;5.9;;
63690;SDS011;49837;57.280;27.070;2023-04-15T03:26:41;13.3;;;6.0;;
63690;SDS011;49837;57.280;27.070;2023-04-15T03:27:41;11.5;;;6.0;;
63690;SDS011;49837;57.280;27.070;2023-04-15T03:28:42;13.5;;;6.0;;
63690;SDS011;49837;57.280;27.070;2023-04-15T03:29:42;15.3;;;6.4;;
63690;SDS011;49837;57.280;27.070;2023-04-15T03:30:42;15.4;;;6.3;;
63690;SDS011;49837;57.280;27.070;2023-04-15T03:31:43;14.2;;;6.3;;
63690;SDS011;49837;57.280;27.070;2023-04-15T03:32:43;13.1;;;6.4;;
63690;SDS011;49837;57.280;27.070;2023-04-15T03:33:44;20.3;;;6.5;;
63690;SDS011;49837;57.280;27.070;2023-04-15T03:34:44;12.9;;;6.4;;
63690;SDS011;49837;57.280;27.070;2023-04-15T03:35:44;15.0;;;6.2;;
63690;SDS011;49837;57.280;27.070;2023-04-15T03:36:45;10.7;;;5.6;;
63690;SDS011;49837;57.280;27.070;2023-04-15T03:37:45;18.1;;;6.1;;
63690;SDS011;49837;57.280;27.070;2023-04-15T03:38:45;12.6;;;5.6;;
63690;SDS011;49837;57.280;27.070;2023-04-15T03:39:46;16.2;;;6.5;;
63690;SDS011;49837;57.280;27.070;2023-04-15T03:40:46;12.9;;;6.0;;
63690;SDS011;49837;57.280;27.070;2023-04-15T03:41:46;15.2;;;6.4;;
63690;SDS011;49837;57.280;27.070;2023-04-15T03:42:47;13.2;;;5.7;;
63690;SDS011;49837;57.280;27.070;2023-04-15T03:43:47;27.2;;;6.9;;
63690;SDS011;49837;57.280;27.070;2023-04-15T03:44:48;26.4;;;7.5;;
63690;SDS011;49837;57.280;27.070;2023-04-15T03:45:48;18.0;;;6.2;;
63690;SDS011;49837;57.280;27.070;2023-04-15T03:46:48;18.2;;;6.1;;
63690;SDS011;49837;57.280;27.070;2023-04-15T03:47:49;16.8;;;6.2;;
63690;SDS011;49837;57.280;27.070;2023-04-15T03:48:49;11.5;;;5.7;;
63690;SDS011;49837;57.280;27.070;2023-04-15T03:49:49;12.8;;;6.4;;
63690;SDS011;49837;57.280;27.070;2023-04-15T03:50:50;11.9;;;6.1;;
63690;SDS011;49837;57.280;27.070;2023-04-15T03:51:50;13.3;;;6.2;;
63690;SDS011;49837;57.280;27.070;2023-04-15T03:52:50;12.7;;;6.8;;
63690;SDS011;49837;57.280;27.070;2023-04-15T03:53:51;15.5;;;6.3;;
63690;SDS011;49837;57.280;27.070;2023-04-15T03:54:51;15.1;;;6.2;;
63690;SDS011;49837;57.280;27.070;2023-04-15T03:55:51;13.7;;;6.1;;
63690;SDS011;49837;57.280;27.070;2023-04-15T03:56:52;17.0;;;6.2;;
63690;SDS011;49837;57.280;27.070;2023-04-15T03:57:52;13.6;;;6.5;;
63690;SDS011;49837;57.280;27.070;2023-04-15T03:58:53;14.5;;;6.5;;
63690;SDS011;49837;57.280;27.070;2023-04-15T03:59:53;12.9;;;6.2;;
63690;SDS011;49837;57.280;27.070;2023-04-15T04:00:53;11.7;;;5.6;;
63690;SDS011;49837;57.280;27.070;2023-04-15T04:01:54;14.8;;;6.1;;
63690;SDS011;49837;57.280;27.070;2023-04-15T04:02:54;12.8;;;6.1;;
63690;SDS011;49837;57.280;27.070;2023-04-15T04:03:54;13.2;;;6.0;;
63690;SDS011;49837;57.280;27.070;2023-04-15T04:04:55;15.3;;;6.1;;
63690;SDS011;49837;57.280;27.070;2023-04-15T04:05:55;11.8;;;5.4;;
63690;SDS011;49837;57.280;27.070;2023-04-15T04:06:55;14.2;;;6.1;;
63690;SDS011;49837;57.280;27.070;2023-04-15T04:07:56;12.0;;;5.8;;
63690;SDS011;49837;57.280;27.070;2023-04-15T04:08:56;12.9;;;6.1;;
63690;SDS011;49837;57.280;27.070;2023-04-15T04:09:57;13.4;;;5.8;;
63690;SDS011;49837;57.280;27.070;2023-04-15T04:10:57;14.9;;;6.2;;
63690;SDS011;49837;57.280;27.070;2023-04-15T04:11:57;13.9;;;6.2;;
63690;SDS011;49837;57.280;27.070;2023-04-15T04:12:58;12.9;;;5.5;;
63690;SDS011;49837;57.280;27.070;2023-04-15T04:13:58;11.4;;;5.6;;
63690;SDS011;49837;57.280;27.070;2023-04-15T04:14:58;12.1;;;5.8;;
63690;SDS011;49837;57.280;27.070;2023-04-15T04:15:59;14.2;;;5.8;;
63690;SDS011;49837;57.280;27.070;2023-04-15T04:16:59;12.6;;;6.2;;
63690;SDS011;49837;57.280;27.070;2023-04-15T04:17:59;10.3;;;5.5;;
63690;SDS011;49837;57.280;27.070;2023-04-15T04:19:00;16.3;;;5.8;;
63690;SDS011;49837;57.280;27.070;2023-04-15T04:20:00;11.8;;;5.5;;
63690;SDS011;49837;57.280;27.070;2023-04-15T04:21:00;12.1;;;5.9;;
63690;SDS011;49837;57.280;27.070;2023-04-15T04:22:01;11.1;;;5.6;;
63690;SDS011;49837;57.280;27.070;2023-04-15T04:23:01;15.9;;;6.1;;
63690;SDS011;49837;57.280;27.070;2023-04-15T04:24:02;11.3;;;5.4;;
63690;SDS011;49837;57.280;27.070;2023-04-15T04:25:02;21.0;;;6.2;;
63690;SDS011;49837;57.280;27.070;2023-04-15T04:26:02;28.5;;;6.5;;
63690;SDS011;49837;57.280;27.070;2023-04-15T04:27:03;25.8;;;5.8;;
63690;SDS011;49837;57.280;27.070;2023-04-15T04:28:03;14.7;;;6.3;;
63690;SDS011;49837;57.280;27.070;2023-04-15T04:29:03;11.3;;;5.2;;
63690;SDS011;49837;57.280;27.070;2023-04-15T04:30:04;11.9;;;5.8;;
63690;SDS011;49837;57.280;27.070;2023-04-15T04:31:04;10.4;;;5.0;;
63690;SDS011;49837;57.280;27.070;2023-04-15T04:32:05;14.0;;;5.3;;
63690;SDS011;49837;57.280;27.070;2023-04-15T04:33:05;14.7;;;5.8;;
63690;SDS011;49837;57.280;27.070;2023-04-15T04:34:05;12.3;;;5.6;;
63690;SDS011;49837;57.280;27.070;2023-04-15T04:35:06;11.3;;;5.3;;
63690;SDS011;49837;57.280;27.070;2023-04-15T04:36:06;10.8;;;5.2;;
63690;SDS011;49837;57.280;27.070;2023-04-15T04:37:06;18.7;;;5.7;;
63690;SDS011;49837;57.280;27.070;2023-04-15T04:38:07;14.7;;;5.7;;
63690;SDS011;49837;57.280;27.070;2023-04-15T04:39:07;14.4;;;5.2;;
63690;SDS011;49837;57.280;27.070;2023-04-15T04:40:08;12.1;;;5.0;;
63690;SDS011;49837;57.280;27.070;2023-04-15T04:41:08;13.5;;;4.9;;
63690;SDS011;49837;57.280;27.070;2023-04-15T04:42:08;11.7;;;5.1;;
63690;SDS011;49837;57.280;27.070;2023-04-15T04:43:08;11.0;;;5.0;;
63690;SDS011;49837;57.280;27.070;2023-04-15T04:44:09;10.8;;;5.3;;
63690;SDS011;49837;57.280;27.070;2023-04-15T04:45:09;13.6;;;4.9;;
63690;SDS011;49837;57.280;27.070;2023-04-15T04:46:09;11.6;;;5.0;;
63690;SDS011;49837;57.280;27.070;2023-04-15T04:47:10;11.0;;;5.1;;
63690;SDS011;49837;57.280;27.070;2023-04-15T04:48:10;14.4;;;5.3;;
63690;SDS011;49837;57.280;27.070;2023-04-15T04:49:10;11.8;;;4.7;;
63690;SDS011;49837;57.280;27.070;2023-04-15T04:50:11;9.6;;;4.6;;
63690;SDS011;49837;57.280;27.070;2023-04-15T04:51:11;12.6;;;4.9;;
63690;SDS011;49837;57.280;27.070;2023-04-15T04:52:12;9.3;;;4.7;;
63690;SDS011;49837;57.280;27.070;2023-04-15T04:53:12;10.2;;;4.9;;
63690;SDS011;49837;57.280;27.070;2023-04-15T04:54:12;10.1;;;4.8;;
63690;SDS011;49837;57.280;27.070;2023-04-15T04:55:13;11.9;;;5.7;;
63690;SDS011;49837;57.280;27.070;2023-04-15T04:56:13;11.5;;;5.2;;
63690;SDS011;49837;57.280;27.070;2023-04-15T04:57:13;12.2;;;5.3;;
63690;SDS011;49837;57.280;27.070;2023-04-15T04:58:14;18.9;;;5.5;;
63690;SDS011;49837;57.280;27.070;2023-04-15T04:59:14;13.5;;;5.0;;
63690;SDS011;49837;57.280;27.070;2023-04-15T05:00:15;12.0;;;4.9;;
63690;SDS011;49837;57.280;27.070;2023-04-15T05:01:15;14.0;;;4.8;;
63690;SDS011;49837;57.280;27.070;2023-04-15T05:02:15;10.4;;;5.0;;
63690;SDS011;49837;57.280;27.070;2023-04-15T05:03:16;10.8;;;5.0;;
63690;SDS011;49837;57.280;27.070;2023-04-15T05:04:16;14.4;;;6.1;;
63690;SDS011;49837;57.280;27.070;2023-04-15T05:05:16;12.4;;;5.2;;
63690;SDS011;49837;57.280;27.070;2023-04-15T05:06:17;10.6;;;5.4;;
63690;SDS011;49837;57.280;27.070;2023-04-15T05:07:17;12.4;;;5.0;;
63690;SDS011;49837;57.280;27.070;2023-04-15T05:08:17;10.9;;;5.3;;
63690;SDS011;49837;57.280;27.070;2023-04-15T05:09:18;10.4;;;5.3;;
63690;SDS011;49837;57.280;27.070;2023-04-15T05:10:18;9.9;;;5.1;;
63690;SDS011;49837;57.280;27.070;2023-04-15T05:11:19;11.1;;;4.7;;
63690;SDS011;49837;57.280;27.070;2023-04-15T05:12:19;25.5;;;6.3;;
63690;SDS011;49837;57.280;27.070;2023-04-15T05:13:19;16.4;;;5.7;;
63690;SDS011;49837;57.280;27.070;2023-04-15T05:14:20;10.2;;;4.6;;
63690;SDS011;49837;57.280;27.070;2023-04-15T05:15:20;10.5;;;5.0;;
63690;SDS011;49837;57.280;27.070;2023-04-15T05:16:20;12.9;;;5.8;;
63690;SDS011;49837;57.280;27.070;2023-04-15T05:17:21;9.8;;;4.9;;
63690;SDS011;49837;57.280;27.070;2023-04-15T05:18:21;10.7;;;5.0;;
63690;SDS011;49837;57.280;27.070;2023-04-15T05:19:21;11.3;;;5.2;;
63690;SDS011;49837;57.280;27.070;2023-04-15T05:20:22;12.0;;;5.3;;
63690;SDS011;49837;57.280;27.070;2023-04-15T05:21:22;11.1;;;5.3;;
63690;SDS011;49837;57.280;27.070;2023-04-15T05:22:23;26.5;;;5.8;;
63690;SDS011;49837;57.280;27.070;2023-04-15T05:23:23;16.7;;;5.2;;
63690;SDS011;49837;57.280;27.070;2023-04-15T05:24:23;17.4;;;6.0;;
63690;SDS011;49837;57.280;27.070;2023-04-15T05:25:24;13.2;;;5.5;;
63690;SDS011;49837;57.280;27.070;2023-04-15T05:26:24;10.7;;;5.0;;
63690;SDS011;49837;57.280;27.070;2023-04-15T05:27:24;14.3;;;4.9;;
63690;SDS011;49837;57.280;27.070;2023-04-15T05:28:25;10.5;;;5.0;;
63690;SDS011;49837;57.280;27.070;2023-04-15T05:29:25;9.8;;;5.1;;
63690;SDS011;49837;57.280;27.070;2023-04-15T05:30:26;14.4;;;5.3;;
63690;SDS011;49837;57.280;27.070;2023-04-15T05:31:26;11.4;;;5.1;;
63690;SDS011;49837;57.280;27.070;2023-04-15T05:32:26;14.6;;;5.4;;
63690;SDS011;49837;57.280;27.070;2023-04-15T05:33:27;11.1;;;4.9;;
63690;SDS011;49837;57.280;27.070;2023-04-15T05:34:27;11.5;;;5.0;;
63690;SDS011;49837;57.280;27.070;2023-04-15T05:35:27;11.4;;;5.3;;
63690;SDS011;49837;57.280;27.070;2023-04-15T05:36:28;12.7;;;5.3;;
63690;SDS011;49837;57.280;27.070;2023-04-15T05:37:28;13.2;;;5.0;;
63690;SDS011;49837;57.280;27.070;2023-04-15T05:38:28;9.4;;;4.7;;
63690;SDS011;49837;57.280;27.070;2023-04-15T05:39:29;11.9;;;4.9;;
63690;SDS011;49837;57.280;27.070;2023-04-15T05:40:29;11.8;;;5.1;;
63690;SDS011;49837;57.280;27.070;2023-04-15T05:41:30;23.8;;;6.1;;
63690;SDS011;49837;57.280;27.070;2023-04-15T05:42:30;11.5;;;5.5;;
63690;SDS011;49837;57.280;27.070;2023-04-15T05:43:30;13.7;;;4.6;;
63690;SDS011;49837;57.280;27.070;2023-04-15T05:44:31;10.1;;;4.8;;
63690;SDS011;49837;57.280;27.070;2023-04-15T05:45:31;17.9;;;5.5;;
63690;SDS011;49837;57.280;27.070;2023-04-15T05:46:31;13.0;;;5.0;;
63690;SDS011;49837;57.280;27.070;2023-04-15T05:47:32;9.6;;;5.2;;
63690;SDS011;49837;57.280;27.070;2023-04-15T05:48:32;11.2;;;4.8;;
63690;SDS011;49837;57.280;27.070;2023-04-15T05:49:33;11.4;;;5.0;;
63690;SDS011;49837;57.280;27.070;2023-04-15T05:50:33;11.3;;;5.4;;
63690;SDS011;49837;57.280;27.070;2023-04-15T05:51:33;9.9;;;4.9;;
63690;SDS011;49837;57.280;27.070;2023-04-15T05:52:34;10.4;;;5.2;;
63690;SDS011;49837;57.280;27.070;2023-04-15T05:53:34;14.5;;;5.4;;
63690;SDS011;49837;57.280;27.070;2023-04-15T05:54:34;11.6;;;5.0;;
63690;SDS011;49837;57.280;27.070;2023-04-15T05:55:35;15.2;;;5.7;;
63690;SDS011;49837;57.280;27.070;2023-04-15T05:56:35;10.0;;;4.7;;
63690;SDS011;49837;57.280;27.070;2023-04-15T05:57:36;15.0;;;6.1;;
63690;SDS011;49837;57.280;27.070;2023-04-15T05:58:37;12.1;;;5.4;;
63690;SDS011;49837;57.280;27.070;2023-04-15T05:59:36;11.9;;;5.1;;
63690;SDS011;49837;57.280;27.070;2023-04-15T06:00:37;11.6;;;5.3;;
63690;SDS011;49837;57.280;27.070;2023-04-15T06:01:37;12.2;;;5.1;;
63690;SDS011;49837;57.280;27.070;2023-04-15T06:02:37;13.6;;;5.2;;
63690;SDS011;49837;57.280;27.070;2023-04-15T06:03:38;15.4;;;6.1;;
63690;SDS011;49837;57.280;27.070;2023-04-15T06:04:38;12.2;;;5.4;;